Flight Track Log - Related Links

Times and Time Zones

All times are in EDT time to prevent confusion due to time zone crossing. See the UAL4843 flight status page for this flight to view local times or setup timezone preferences in your user account.

Time Position Orientation Groundspeed Altitude Reporting Facility
EDT Latitude Longitude Course Direction KTS MPH feet Rate Location/Type
Tue 01:32:27 PM 42.9333 -78.7500 216° Southwest 130 150 1,500  Level Buffalo TRACON
Tue 01:33:28 PM 42.9000 -78.7833 216° Southwest 149 171 2,600 1,240 Climbing Buffalo TRACON
Tue 01:34:28 PM 42.8500 -78.8000 194° South 179 206 4,000 1,373 Climbing Buffalo TRACON
Tue 01:35:26 PM 42.8033 -78.8372 210° Southwest 178 205 5,300 1,322 Climbing Cleveland Center
Tue 01:36:26 PM 42.7642 -78.8525 196° South 188 216 6,600 1,300 Climbing Cleveland Center
Tue 01:37:26 PM 42.7144 -78.8764 199° South 188 216 7,900 1,350 Climbing Cleveland Center
Tue 01:38:26 PM 42.6586 -78.9033 200° South 188 216 9,300 1,300 Climbing Cleveland Center
Tue 01:39:26 PM 42.6089 -78.9217 195° South 183 211 10,500 1,150 Climbing Cleveland Center
Tue 01:40:26 PM 42.5611 -78.9483 202° Southwest 188 216 11,600 750 Climbing Cleveland Center
Tue 01:41:26 PM 42.5094 -78.9722 199° South 193 222 12,000 200 Climbing Cleveland Center
Tue 01:42:26 PM 42.4494 -78.9989 198° South 224 258 12,000  Level Cleveland Center
Tue 01:43:26 PM 42.4000 -79.0564 221° Southwest 236 272 12,000  Level Cleveland Center
Tue 01:44:26 PM 42.3678 -79.1358 241° Southwest 236 272 12,000  Level Cleveland Center
Tue 01:45:26 PM 42.3353 -79.2153 241° Southwest 236 272 12,000  Level Cleveland Center
Tue 01:46:26 PM 42.3008 -79.2975 240° Southwest 248 285 12,000  Level Cleveland Center
Tue 01:47:26 PM 42.2706 -79.3739 242° Southwest 248 285 12,000  Level Cleveland Center
Tue 01:48:26 PM 42.2358 -79.4558 240° Southwest 248 285 12,000  Level Cleveland Center
Tue 01:49:26 PM 42.2053 -79.5347 242° Southwest 248 285 12,000  Level Cleveland Center
Tue 01:50:26 PM 42.1728 -79.6139 241° Southwest 248 285 12,000  Level Cleveland Center
Tue 01:51:26 PM 42.1400 -79.6928 241° Southwest 248 285 12,000  Level Cleveland Center
Tue 01:52:26 PM 42.1053 -79.7744 240° Southwest 248 285 12,000  Level Cleveland Center
Tue 01:53:26 PM 42.0722 -79.8558 241° Southwest 248 285 12,000  Level Cleveland Center
Tue 01:54:26 PM 42.0372 -79.9344 239° Southwest 248 285 12,000  Level Cleveland Center
Tue 01:55:26 PM 42.0064 -80.0158 243° Southwest 248 285 12,000  Level Cleveland Center
Tue 01:56:26 PM 41.9694 -80.1028 240° Southwest 248 285 12,000  Level Cleveland Center
Tue 01:57:26 PM 41.9364 -80.1811 240° Southwest 248 285 12,000  Level Cleveland Center
Tue 01:58:26 PM 41.9033 -80.2622 241° Southwest 248 285 12,000 -50 Level Cleveland Center
Tue 01:59:26 PM 41.8700 -80.3406 240° Southwest 248 285 11,900 -50 Descending Cleveland Center
Tue 02:00:26 PM 41.8347 -80.4186 239° Southwest 248 285 11,900 50 Level Cleveland Center
Tue 02:01:26 PM 41.8036 -80.4967 242° Southwest 248 285 12,000 50 Climbing Cleveland Center
Tue 02:02:26 PM 41.7725 -80.5719 241° Southwest 248 285 12,000 -100 Level Cleveland Center
Tue 02:03:26 PM 41.7347 -80.6528 238° Southwest 248 285 11,800 -500 Descending Cleveland Center
Tue 02:04:26 PM 41.7014 -80.7333 241° Southwest 248 285 11,000 -750 Descending Cleveland Center
Tue 02:05:26 PM 41.6722 -80.8056 242° Southwest 253 291 10,300 -750 Descending Cleveland Center
Tue 02:06:26 PM 41.6364 -80.8833 238° Southwest 248 285 9,500 -780 Descending Cleveland Center
Tue 02:07:06 PM 41.6133 -80.9442 243° Southwest 244 281 9,000 -500 Descending Cleveland Center
Tue 02:07:26 PM 41.6028 -80.9608 230° Southwest 248 285 9,000  Level Cleveland Center
Tue 02:08:01 PM 41.5797 -81.0133 240° Southwest 243 280 9,000  Level Cleveland Center
Tue 02:08:26 PM 41.5692 -81.0383 241° Southwest 248 285 9,000  Level Cleveland Center
Tue 02:09:02 PM 41.5483 -81.0881 241° Southwest 236 272 9,000  Level Cleveland Center
Tue 02:09:26 PM 41.5397 -81.1158 248° West 243 280 9,000  Level Cleveland Center
Tue 02:10:03 PM 41.5561 -81.1714 292° West 251 289 9,000  Level Cleveland Center
Tue 02:10:26 PM 41.5664 -81.1964 299° West 222 255 9,000  Level Cleveland Center
Tue 02:11:03 PM 41.5869 -81.2578 294° West 245 282 9,000  Level Cleveland Center
Tue 02:11:26 PM 41.5950 -81.2800 296° West 237 273 9,000 -885 Level Cleveland Center
Tue 02:12:04 PM 41.6197 -81.3442 297° West 255 293 8,100 -1,200 Descending Cleveland Center
Tue 02:12:26 PM 41.6281 -81.3664 297° West 250 288 7,800 -984 Descending Cleveland Center
Tue 02:13:05 PM 41.6483 -81.4333 292° West 260 299 7,100 -900 Descending Cleveland Center
Tue 02:13:26 PM 41.6544 -81.4614 286° West 255 293 6,900 -689 Descending Cleveland Center
Tue 02:14:06 PM 41.6353 -81.5028 238° Southwest 176 203 6,400 -800 Descending Cleveland Center
Tue 02:14:26 PM 41.6247 -81.5219 234° Southwest 205 236 6,100 -300 Descending Cleveland Center
Tue 02:15:26 PM 41.5908 -81.5714 228° Southwest 183 211 6,000 -178 Descending Cleveland Center
Tue 02:16:07 PM 41.5678 -81.6044 227° Southwest 177 204 5,800 -500 Descending Cleveland Center
Tue 02:16:26 PM 41.5572 -81.6208 229° Southwest 183 211 5,500 -984 Descending Cleveland Center
Tue 02:17:08 PM 41.5381 -81.6567 234° Southwest 183 211 4,800 -1,165 Descending Cleveland Center
Tue 02:18:09 PM 41.5019 -81.7114 229° Southwest 185 213 3,500 -1,131 Descending Cleveland Center
Tue 02:19:10 PM 41.4703 -81.7553 226° Southwest 167 192 2,500 -836 Descending Cleveland Center
Tue 02:20:11 PM 41.4450 -81.7936 229° Southwest 130 150 1,800 -694 Descending Cleveland Center
Tue 02:21:11 PM 41.4258 -81.8267 232° Southwest 119 137 1,100 -700 Descending Cleveland Center

Login

Don't have an account? Register now (free) for customized features, flight alerts, and more!